createdAt,value
2023-02-19T00:00:55.444Z,53.91
2023-02-19T00:01:59.764Z,54.07
2023-02-19T00:03:04.029Z,53.99
2023-02-19T00:04:08.294Z,54.03
2023-02-19T00:05:12.839Z,53.96
2023-02-19T00:06:17.150Z,53.92
2023-02-19T00:07:21.451Z,54.04
2023-02-19T00:08:25.744Z,53.99
2023-02-19T00:09:30.015Z,54.14
2023-02-19T00:10:34.285Z,54.09
2023-02-19T00:11:38.756Z,54.03
2023-02-19T00:12:42.995Z,54.14
2023-02-19T00:13:47.299Z,54.06
2023-02-19T00:14:51.562Z,53.81
2023-02-19T00:15:56.008Z,54.03
2023-02-19T00:17:00.278Z,53.88
2023-02-19T00:18:04.535Z,53.94
2023-02-19T00:19:08.851Z,53.96
2023-02-19T00:20:13.102Z,53.99
2023-02-19T00:21:17.349Z,53.86
2023-02-19T00:22:21.612Z,53.81
2023-02-19T00:23:25.907Z,53.93
2023-02-19T00:24:30.181Z,54.17
2023-02-19T00:25:34.430Z,54.15
2023-02-19T00:26:38.738Z,54.1
2023-02-19T00:27:42.989Z,54.15
2023-02-19T00:28:47.291Z,54.18
2023-02-19T00:29:51.561Z,54.27
2023-02-19T00:30:55.880Z,54.12
2023-02-19T00:32:00.850Z,54.25
2023-02-19T00:33:05.151Z,54.32
2023-02-19T00:34:09.403Z,54.42
2023-02-19T00:35:13.650Z,54.3
2023-02-19T00:36:17.905Z,54.15
2023-02-19T00:37:22.163Z,54.28
2023-02-19T00:38:26.438Z,54.26
2023-02-19T00:39:30.694Z,54.34
2023-02-19T00:40:34.983Z,54.47
2023-02-19T00:41:39.319Z,54.16
2023-02-19T00:42:43.604Z,54.01
2023-02-19T00:43:47.990Z,54.18
2023-02-19T00:44:52.318Z,53.87
2023-02-19T00:45:56.642Z,53.87
2023-02-19T00:47:00.945Z,53.83
2023-02-19T00:48:05.206Z,53.92
2023-02-19T00:49:09.434Z,54
2023-02-19T00:50:13.725Z,53.98
2023-02-19T00:51:17.976Z,53.92
2023-02-19T00:52:22.338Z,54.14
2023-02-19T00:53:26.576Z,53.9
2023-02-19T00:54:30.860Z,53.96
2023-02-19T00:55:35.112Z,53.88
2023-02-19T00:56:39.346Z,53.96
2023-02-19T00:57:43.594Z,53.97
2023-02-19T00:58:47.844Z,53.98
2023-02-19T00:59:52.107Z,53.95
2023-02-19T01:00:56.377Z,53.94
2023-02-19T01:02:00.745Z,53.88
2023-02-19T01:03:05.016Z,53.94
2023-02-19T01:04:09.267Z,53.99
2023-02-19T01:05:13.583Z,53.87
2023-02-19T01:06:17.856Z,53.9
2023-02-19T01:07:22.134Z,54.16
2023-02-19T01:08:26.438Z,54.22
2023-02-19T01:09:30.670Z,54.23
2023-02-19T01:10:35.001Z,54.17
2023-02-19T01:11:39.274Z,54.39
2023-02-19T01:12:43.527Z,54.2
2023-02-19T01:13:47.904Z,54.11
2023-02-19T01:14:52.176Z,54.1
2023-02-19T01:15:56.628Z,54.13
2023-02-19T01:17:00.890Z,54.03
2023-02-19T01:18:05.136Z,54.3
2023-02-19T01:19:09.411Z,54.13
2023-02-19T01:20:13.675Z,54.07
2023-02-19T01:21:17.918Z,54.02
2023-02-19T01:22:22.175Z,53.97
2023-02-19T01:23:26.455Z,54.17
2023-02-19T01:24:30.746Z,54.1
2023-02-19T01:25:35.032Z,54.1
2023-02-19T01:26:39.263Z,54.21
2023-02-19T01:27:43.503Z,54.52
2023-02-19T01:28:47.819Z,54.61
2023-02-19T01:29:52.089Z,54.63
2023-02-19T01:30:56.458Z,54.61
2023-02-19T01:32:01.211Z,54.31
2023-02-19T01:33:05.543Z,54.39
2023-02-19T01:34:09.804Z,54.42
2023-02-19T01:35:14.070Z,54.77
2023-02-19T01:36:18.339Z,54.53
2023-02-19T01:37:22.646Z,54.66
2023-02-19T01:38:26.888Z,54.76
2023-02-19T01:39:31.146Z,54.88
2023-02-19T01:40:35.409Z,54.6
2023-02-19T01:41:39.715Z,54.55
2023-02-19T01:42:43.984Z,54.77
2023-02-19T01:43:48.227Z,54.84
2023-02-19T01:44:52.484Z,54.77
2023-02-19T01:45:56.746Z,54.9
2023-02-19T01:47:01.100Z,54.58
2023-02-19T01:48:05.354Z,55
2023-02-19T01:49:09.643Z,54.83
2023-02-19T01:50:13.923Z,54.86
2023-02-19T01:51:18.183Z,55.07
2023-02-19T01:52:22.443Z,54.99
2023-02-19T01:53:26.682Z,54.98
2023-02-19T01:54:31.000Z,55.02
2023-02-19T01:55:35.254Z,55.05
2023-02-19T01:56:39.720Z,55
2023-02-19T01:57:43.979Z,54.73
2023-02-19T01:58:48.290Z,54.81
2023-02-19T01:59:52.524Z,55.06
2023-02-19T02:00:56.936Z,54.74
2023-02-19T02:02:01.521Z,54.82
2023-02-19T02:03:05.791Z,55.04
2023-02-19T02:04:10.074Z,55.14
2023-02-19T02:05:14.328Z,55
2023-02-19T02:06:19.607Z,54.89
2023-02-19T02:07:23.875Z,55.08
2023-02-19T02:08:28.128Z,54.97
2023-02-19T02:09:32.420Z,54.91
2023-02-19T02:10:36.691Z,54.85
2023-02-19T02:11:40.913Z,55.08
2023-02-19T02:12:45.156Z,55.26
2023-02-19T02:13:49.434Z,54.85
2023-02-19T02:14:53.719Z,54.95
2023-02-19T02:15:58.056Z,54.82
2023-02-19T02:17:02.340Z,55.09
2023-02-19T02:18:06.618Z,55
2023-02-19T02:19:10.971Z,55.17
2023-02-19T02:20:15.340Z,55.2
2023-02-19T02:21:19.616Z,55.08
2023-02-19T02:22:23.869Z,55.18
2023-02-19T02:23:28.130Z,55.16
2023-02-19T02:24:32.397Z,55.1
2023-02-19T02:25:36.633Z,55.13
2023-02-19T02:26:40.946Z,55.09
2023-02-19T02:27:45.230Z,55.22
2023-02-19T02:28:49.483Z,55.01
2023-02-19T02:29:53.726Z,55.17
2023-02-19T02:30:58.302Z,55.11
2023-02-19T02:32:03.116Z,55.25
2023-02-19T02:33:07.474Z,55.14
2023-02-19T02:34:11.780Z,55.15
2023-02-19T02:35:16.026Z,55.26
2023-02-19T02:36:20.296Z,54.99
2023-02-19T02:37:24.553Z,55.09
2023-02-19T02:38:28.838Z,55.15
2023-02-19T02:39:33.108Z,54.86
2023-02-19T02:40:37.356Z,54.94
2023-02-19T02:41:41.625Z,55.16
2023-02-19T02:42:45.872Z,55.05
2023-02-19T02:43:50.154Z,55.25
2023-02-19T02:44:54.389Z,55.07
2023-02-19T02:45:58.764Z,55.1
2023-02-19T02:47:03.112Z,55.27
2023-02-19T02:48:07.363Z,55.14
2023-02-19T02:49:11.667Z,55.09
2023-02-19T02:50:15.917Z,55.09
2023-02-19T02:51:20.291Z,54.95
2023-02-19T02:52:24.595Z,55.09
2023-02-19T02:53:28.850Z,55.26
2023-02-19T02:54:33.117Z,55.34
2023-02-19T02:55:37.465Z,55.41
2023-02-19T02:56:41.778Z,55.24
2023-02-19T02:57:46.040Z,55.29
2023-02-19T02:58:50.286Z,55.16
2023-02-19T02:59:54.551Z,55.16
2023-02-19T03:00:58.966Z,55.36
2023-02-19T03:02:03.402Z,55.35
2023-02-19T03:03:07.700Z,55.67
2023-02-19T03:04:12.000Z,55.36
2023-02-19T03:05:16.294Z,55.09
2023-02-19T03:06:20.531Z,55.32
2023-02-19T03:07:24.805Z,55.22
2023-02-19T03:08:29.055Z,55.24
2023-02-19T03:09:33.330Z,55.47
2023-02-19T03:10:37.574Z,55.49
2023-02-19T03:11:41.846Z,55.53
2023-02-19T03:12:46.128Z,55.48
2023-02-19T03:13:50.404Z,55.92
2023-02-19T03:14:54.685Z,55.66
2023-02-19T03:15:58.961Z,55.32
2023-02-19T03:17:04.247Z,55.34
2023-02-19T03:18:08.485Z,55.42
2023-02-19T03:19:12.730Z,55.56
2023-02-19T03:20:17.078Z,55.61
2023-02-19T03:21:21.371Z,55.51
2023-02-19T03:22:25.622Z,55.69
2023-02-19T03:23:29.885Z,55.55
2023-02-19T03:24:34.156Z,55.6
2023-02-19T03:25:38.427Z,55.91
2023-02-19T03:26:42.688Z,55.68
2023-02-19T03:27:46.960Z,55.51
2023-02-19T03:28:51.223Z,55.59
2023-02-19T03:29:55.476Z,55.84
2023-02-19T03:30:59.913Z,55.93
2023-02-19T03:32:04.616Z,55.64
2023-02-19T03:33:08.937Z,55.77
2023-02-19T03:34:13.319Z,55.72
2023-02-19T03:35:17.567Z,55.54
2023-02-19T03:36:21.822Z,55.91
2023-02-19T03:37:26.081Z,55.51
2023-02-19T03:38:30.325Z,55.88
2023-02-19T03:39:34.565Z,55.97
2023-02-19T03:40:38.801Z,55.99
2023-02-19T03:41:43.073Z,55.83
2023-02-19T03:42:47.326Z,56.21
2023-02-19T03:43:51.559Z,55.97
2023-02-19T03:44:55.810Z,56.22
2023-02-19T03:46:00.349Z,55.86
2023-02-19T03:47:04.733Z,55.82
2023-02-19T03:48:09.004Z,56.09
2023-02-19T03:49:13.261Z,56.06
2023-02-19T03:50:17.541Z,56.1
2023-02-19T03:51:21.812Z,56.06
2023-02-19T03:52:26.082Z,56.02
2023-02-19T03:53:30.409Z,55.93
2023-02-19T03:54:34.659Z,55.93
2023-02-19T03:55:38.971Z,56.5
2023-02-19T03:56:43.250Z,56.44
2023-02-19T03:57:47.514Z,56.65
2023-02-19T03:58:51.877Z,56.63
2023-02-19T03:59:56.152Z,56.58
2023-02-19T04:01:00.393Z,56.56
2023-02-19T04:02:04.791Z,56.9
2023-02-19T04:03:09.040Z,56.54
2023-02-19T04:04:13.335Z,56.84
2023-02-19T04:05:17.579Z,56.48
2023-02-19T04:06:21.849Z,56.25
2023-02-19T04:07:26.294Z,56.48
2023-02-19T04:08:30.539Z,56.79
2023-02-19T04:09:34.792Z,56.62
2023-02-19T04:10:39.064Z,56.85
2023-02-19T04:11:43.314Z,57.04
2023-02-19T04:12:47.566Z,56.56
2023-02-19T04:13:51.792Z,56.88
2023-02-19T04:14:56.077Z,56.96
2023-02-19T04:16:00.374Z,57.08
2023-02-19T04:17:04.659Z,56.79
2023-02-19T04:18:08.979Z,56.79
2023-02-19T04:19:13.324Z,56.39
2023-02-19T04:20:17.559Z,56.68
2023-02-19T04:21:21.789Z,56.25
2023-02-19T04:22:26.050Z,56.5
2023-02-19T04:23:30.312Z,56.65
2023-02-19T04:24:34.556Z,56.41
2023-02-19T04:25:38.840Z,56.67
2023-02-19T04:26:43.067Z,56.85
2023-02-19T04:27:47.334Z,56.49
2023-02-19T04:28:51.588Z,56.37
2023-02-19T04:29:55.901Z,56.18
2023-02-19T04:31:00.273Z,56.98
2023-02-19T04:32:04.771Z,56.5
2023-02-19T04:33:09.080Z,56.86
2023-02-19T04:34:13.348Z,56.3
2023-02-19T04:35:17.618Z,56.48
2023-02-19T04:36:21.866Z,56.94
2023-02-19T04:37:26.144Z,56.5
2023-02-19T04:38:30.406Z,56.91
2023-02-19T04:39:34.692Z,56.56
2023-02-19T04:40:38.959Z,57.02
2023-02-19T04:41:43.201Z,56.78
2023-02-19T04:42:47.457Z,56.62
2023-02-19T04:43:51.701Z,56.78
2023-02-19T04:44:55.992Z,56.82
2023-02-19T04:46:00.329Z,57.02
2023-02-19T04:47:04.608Z,57.19
2023-02-19T04:48:08.909Z,57.2
2023-02-19T04:49:13.314Z,57.03
2023-02-19T04:50:17.617Z,56.48
2023-02-19T04:51:21.864Z,56.85
2023-02-19T04:52:26.142Z,56.65
2023-02-19T04:53:30.384Z,56.89
2023-02-19T04:54:34.731Z,56.69
2023-02-19T04:55:39.005Z,56.76
2023-02-19T04:56:43.306Z,56.64
2023-02-19T04:57:47.572Z,57.2
2023-02-19T04:58:52.846Z,56.81
2023-02-19T04:59:57.102Z,56.69
2023-02-19T05:01:01.369Z,56.59
2023-02-19T05:02:05.610Z,57.04
2023-02-19T05:03:09.872Z,57.27
2023-02-19T05:04:14.410Z,57.46
2023-02-19T05:05:18.694Z,57.32
2023-02-19T05:06:22.955Z,56.92
2023-02-19T05:07:27.199Z,56.64
2023-02-19T05:08:31.499Z,56.37
2023-02-19T05:09:35.780Z,57.05
2023-02-19T05:10:40.094Z,56.8
2023-02-19T05:11:44.349Z,56.39
2023-02-19T05:12:48.604Z,56.27
2023-02-19T05:13:52.847Z,55.88
2023-02-19T05:14:57.187Z,55.57
2023-02-19T05:16:01.769Z,55.31
2023-02-19T05:17:06.047Z,55.09
2023-02-19T05:18:10.301Z,54.97
2023-02-19T05:19:14.906Z,54.79
2023-02-19T05:20:19.192Z,54.75
2023-02-19T05:21:23.483Z,54.69
2023-02-19T05:22:27.769Z,54.51
2023-02-19T05:23:32.028Z,54.5
2023-02-19T05:24:38.635Z,54.32
2023-02-19T05:25:42.887Z,54.37
2023-02-19T05:26:47.567Z,54.68
2023-02-19T05:27:51.864Z,54.38
2023-02-19T05:28:56.290Z,54.35
2023-02-19T05:30:00.659Z,54.25
2023-02-19T05:31:05.117Z,54.34
2023-02-19T05:32:09.499Z,54.28
2023-02-19T05:33:13.769Z,54.35
2023-02-19T05:34:18.071Z,54.36
2023-02-19T05:35:22.347Z,54.24
2023-02-19T05:36:26.603Z,54.35
2023-02-19T05:37:30.865Z,54.31
2023-02-19T05:38:35.156Z,54.46
2023-02-19T05:39:39.426Z,54.5
2023-02-19T05:40:43.657Z,54.46
2023-02-19T05:41:47.929Z,54.52
2023-02-19T05:42:52.262Z,54.66
2023-02-19T05:43:56.525Z,54.68
2023-02-19T05:45:00.812Z,54.83
2023-02-19T05:46:05.139Z,54.89
2023-02-19T05:47:09.425Z,54.81
2023-02-19T05:48:13.726Z,55.16
2023-02-19T05:49:17.972Z,55.16
2023-02-19T05:50:22.492Z,55.18
2023-02-19T05:51:26.760Z,55.53
2023-02-19T05:52:31.002Z,55.33
2023-02-19T05:53:35.296Z,55.45
2023-02-19T05:54:39.577Z,55.48
2023-02-19T05:55:43.891Z,55.51
2023-02-19T05:56:48.182Z,55.63
2023-02-19T05:57:52.428Z,55.36
2023-02-19T05:58:56.795Z,55.48
2023-02-19T06:00:01.115Z,55.75
2023-02-19T06:01:05.514Z,55.84
2023-02-19T06:02:09.783Z,55.45
2023-02-19T06:03:14.227Z,55.97
2023-02-19T06:04:18.509Z,55.75
2023-02-19T06:05:22.805Z,55.66
2023-02-19T06:06:27.117Z,55.59
2023-02-19T06:07:31.398Z,55.65
2023-02-19T06:08:35.671Z,55.44
2023-02-19T06:09:39.922Z,55.48
2023-02-19T06:10:44.225Z,55.56
2023-02-19T06:11:48.501Z,55.88
2023-02-19T06:12:52.798Z,55.38
2023-02-19T06:13:57.054Z,55.46
2023-02-19T06:15:01.269Z,55.77
2023-02-19T06:16:05.684Z,55.34
2023-02-19T06:17:09.969Z,55.67
2023-02-19T06:18:14.337Z,55.72
2023-02-19T06:19:18.605Z,55.74
2023-02-19T06:20:24.456Z,56.07
2023-02-19T06:21:29.267Z,55.72
2023-02-19T06:22:33.521Z,55.8
2023-02-19T06:23:37.806Z,55.89
2023-02-19T06:24:42.089Z,55.89
2023-02-19T06:25:46.341Z,56.03
2023-02-19T06:26:50.586Z,56.54
2023-02-19T06:27:54.965Z,56.02
2023-02-19T06:28:59.191Z,55.96
2023-02-19T06:30:03.629Z,56.2
2023-02-19T06:31:08.254Z,56.03
2023-02-19T06:32:13.085Z,56.28
2023-02-19T06:33:17.414Z,56.34
2023-02-19T06:34:21.738Z,55.99
2023-02-19T06:35:27.059Z,56.09
2023-02-19T06:36:31.306Z,56.03
2023-02-19T06:37:35.697Z,55.8
2023-02-19T06:38:39.988Z,56.08
2023-02-19T06:39:44.224Z,56.18
2023-02-19T06:40:48.456Z,55.83
2023-02-19T06:41:52.800Z,55.96
2023-02-19T06:42:57.145Z,55.94
2023-02-19T06:44:01.413Z,56.02
2023-02-19T06:45:05.669Z,56.27
2023-02-19T06:46:09.975Z,56.27
2023-02-19T06:47:14.237Z,56.14
2023-02-19T06:48:18.485Z,55.99
2023-02-19T06:49:22.756Z,56.8
2023-02-19T06:50:27.049Z,56.73
2023-02-19T06:51:31.303Z,56.74
2023-02-19T06:52:35.565Z,57.07
2023-02-19T06:53:39.886Z,56.93
2023-02-19T06:54:44.129Z,56.97
2023-02-19T06:55:48.527Z,57.05
2023-02-19T06:56:52.845Z,56.84
2023-02-19T06:57:57.096Z,56.79
2023-02-19T06:59:01.358Z,56.78
2023-02-19T07:00:05.615Z,57.09
2023-02-19T07:01:11.093Z,56.97
2023-02-19T07:02:15.474Z,56.85
2023-02-19T07:03:22.918Z,56.95
2023-02-19T07:04:27.384Z,56.69
2023-02-19T07:05:31.751Z,56.92
2023-02-19T07:06:36.066Z,56.98
2023-02-19T07:07:40.324Z,57
2023-02-19T07:08:44.595Z,57.18
2023-02-19T07:09:48.825Z,57.16
2023-02-19T07:10:53.088Z,56.94
2023-02-19T07:11:57.403Z,57.07
2023-02-19T07:13:01.707Z,57.18
2023-02-19T07:14:05.984Z,57.03
2023-02-19T07:15:10.235Z,57.14
2023-02-19T07:16:14.607Z,57.11
2023-02-19T07:17:18.863Z,57.14
2023-02-19T07:18:23.148Z,57.04
2023-02-19T07:19:27.399Z,57.11
2023-02-19T07:20:31.672Z,57.13
2023-02-19T07:21:35.983Z,56.97
2023-02-19T07:22:40.231Z,56.97
2023-02-19T07:23:44.481Z,56.73
2023-02-19T07:24:49.965Z,57.03
2023-02-19T07:25:54.235Z,57.07
2023-02-19T07:26:58.520Z,57.14
2023-02-19T07:28:02.788Z,57.06
2023-02-19T07:29:07.194Z,56.83
2023-02-19T07:30:11.593Z,56.81
2023-02-19T07:31:19.433Z,56.94
2023-02-19T07:32:23.746Z,56.85
2023-02-19T07:33:27.997Z,56.78
2023-02-19T07:34:32.256Z,57.08
2023-02-19T07:35:36.571Z,57.15
2023-02-19T07:36:40.829Z,56.97
2023-02-19T07:37:45.107Z,57.01
2023-02-19T07:38:49.362Z,56.88
2023-02-19T07:39:53.606Z,56.68
2023-02-19T07:40:57.873Z,56.51
2023-02-19T07:42:02.119Z,57.06
2023-02-19T07:43:06.424Z,56.44
2023-02-19T07:44:10.677Z,56.6
2023-02-19T07:45:14.939Z,56.55
2023-02-19T07:46:19.342Z,56.88
2023-02-19T07:47:23.606Z,56.19
2023-02-19T07:48:27.918Z,56.25
2023-02-19T07:49:32.160Z,56.37
2023-02-19T07:50:36.434Z,56.36
2023-02-19T07:51:40.688Z,55.89
2023-02-19T07:52:44.931Z,56.02
2023-02-19T07:53:49.241Z,55.87
2023-02-19T07:54:53.541Z,55.8
2023-02-19T07:55:57.792Z,55.92
2023-02-19T07:57:02.083Z,56.04
2023-02-19T07:58:08.206Z,55.69
2023-02-19T07:59:12.471Z,55.65
2023-02-19T08:00:17.823Z,55.64
2023-02-19T08:01:22.364Z,55.78
2023-02-19T08:02:26.730Z,55.77
2023-02-19T08:03:31.192Z,55.82
2023-02-19T08:04:35.503Z,55.68
2023-02-19T08:05:39.761Z,55.84
2023-02-19T08:06:44.068Z,55.77
2023-02-19T08:07:48.360Z,55.67
2023-02-19T08:08:52.641Z,55.63
2023-02-19T08:09:56.903Z,55.68
2023-02-19T08:11:01.145Z,55.69
2023-02-19T08:12:05.402Z,55.65
2023-02-19T08:13:09.656Z,55.61
2023-02-19T08:14:13.920Z,55.69
2023-02-19T08:15:22.371Z,55.49
2023-02-19T08:16:44.455Z,55.44
2023-02-19T08:17:48.731Z,55.42
2023-02-19T08:18:53.080Z,55.54
2023-02-19T08:19:57.346Z,55.46
2023-02-19T08:21:01.700Z,55.96
2023-02-19T08:22:05.975Z,56.13
2023-02-19T08:23:10.246Z,56.09
2023-02-19T08:24:14.562Z,56.46
2023-02-19T08:25:18.810Z,56.34
2023-02-19T08:26:23.134Z,56.23
2023-02-19T08:27:27.415Z,56.44
2023-02-19T08:28:31.689Z,56.38
2023-02-19T08:29:35.929Z,56.2
2023-02-19T08:30:40.528Z,56.53
2023-02-19T08:31:45.303Z,56.49
2023-02-19T08:32:49.874Z,55.9
2023-02-19T08:33:54.168Z,55.9
2023-02-19T08:34:58.468Z,56.03
2023-02-19T08:36:02.703Z,56.17
2023-02-19T08:37:06.940Z,55.53
2023-02-19T08:38:11.219Z,56.05
2023-02-19T08:39:15.526Z,56.12
2023-02-19T08:40:19.757Z,56.27
2023-02-19T08:41:24.026Z,55.78
2023-02-19T08:42:30.705Z,55.43
2023-02-19T08:43:34.956Z,55.29
2023-02-19T08:44:39.254Z,54.95
2023-02-19T08:45:43.633Z,54.98
2023-02-19T08:46:47.885Z,54.5
2023-02-19T08:47:52.139Z,54.07
2023-02-19T08:48:56.430Z,53.89
2023-02-19T08:50:00.695Z,53.69
2023-02-19T08:51:04.979Z,53.42
2023-02-19T08:52:09.247Z,53.42
2023-02-19T08:53:13.503Z,53.25
2023-02-19T08:54:17.841Z,53.12
2023-02-19T08:55:22.428Z,53.17
2023-02-19T08:56:26.901Z,53.24
2023-02-19T08:57:32.192Z,53.73
2023-02-19T08:58:36.425Z,52.73
2023-02-19T08:59:40.731Z,52.02
2023-02-19T09:00:44.994Z,51.15
2023-02-19T09:01:49.347Z,50.71
2023-02-19T09:02:53.592Z,50.29
2023-02-19T09:03:58.120Z,50.58
2023-02-19T09:05:02.473Z,50.46
2023-02-19T09:06:06.725Z,50.92
2023-02-19T09:07:10.999Z,51.38
2023-02-19T09:08:15.243Z,51.47
2023-02-19T09:09:19.491Z,51.49
2023-02-19T09:10:23.798Z,51.6
2023-02-19T09:11:28.127Z,51.66
2023-02-19T09:12:32.388Z,51.68
2023-02-19T09:13:36.647Z,51.94
2023-02-19T09:14:40.882Z,51.91
2023-02-19T09:15:45.253Z,51.96
2023-02-19T09:16:49.495Z,51.78
2023-02-19T09:17:53.986Z,51.92
2023-02-19T09:18:58.230Z,51.89
2023-02-19T09:20:02.578Z,51.89
2023-02-19T09:21:06.832Z,51.91
2023-02-19T09:22:11.100Z,51.81
2023-02-19T09:23:15.378Z,51.78
2023-02-19T09:24:19.767Z,51.66
2023-02-19T09:25:24.031Z,51.75
2023-02-19T09:26:28.425Z,51.67
2023-02-19T09:27:32.806Z,51.75
2023-02-19T09:28:37.095Z,51.73
2023-02-19T09:29:41.367Z,51.74
2023-02-19T09:30:45.755Z,51.71
2023-02-19T09:31:50.258Z,51.77
2023-02-19T09:32:54.589Z,51.84
2023-02-19T09:33:58.805Z,51.78
2023-02-19T09:35:03.043Z,51.77
2023-02-19T09:36:07.344Z,51.77
2023-02-19T09:37:11.615Z,51.7
2023-02-19T09:38:15.890Z,51.78
2023-02-19T09:39:20.166Z,51.79
2023-02-19T09:40:24.456Z,51.78
2023-02-19T09:41:28.752Z,51.66
2023-02-19T09:42:33.057Z,51.67
2023-02-19T09:43:37.332Z,51.69
2023-02-19T09:44:41.628Z,51.76
2023-02-19T09:45:45.871Z,51.59
2023-02-19T09:46:50.133Z,51.68
2023-02-19T09:47:54.408Z,51.58
2023-02-19T09:48:58.686Z,51.65
2023-02-19T09:50:02.942Z,51.68
2023-02-19T09:51:07.216Z,51.64
2023-02-19T09:52:11.461Z,51.64
2023-02-19T09:53:15.740Z,51.65
2023-02-19T09:54:19.980Z,51.64
2023-02-19T09:55:24.233Z,51.8
2023-02-19T09:56:28.876Z,51.65
2023-02-19T09:57:33.151Z,51.6
2023-02-19T09:58:37.465Z,51.59
2023-02-19T09:59:41.731Z,51.55
2023-02-19T10:00:45.988Z,51.61
2023-02-19T10:01:50.415Z,51.56
2023-02-19T10:02:54.711Z,51.54
2023-02-19T10:03:58.973Z,51.46
2023-02-19T10:05:03.647Z,51.44
2023-02-19T10:06:11.525Z,51.39
2023-02-19T10:07:15.818Z,51.51
2023-02-19T10:08:20.110Z,51.53
2023-02-19T10:09:24.377Z,51.56
2023-02-19T10:10:28.635Z,51.41
2023-02-19T10:11:32.886Z,51.39
2023-02-19T10:12:37.147Z,51.46
2023-02-19T10:13:41.454Z,51.46
2023-02-19T10:14:45.782Z,51.44
2023-02-19T10:15:50.230Z,51.44
2023-02-19T10:16:54.483Z,51.43
2023-02-19T10:17:58.723Z,51.33
2023-02-19T10:19:03.003Z,51.28
2023-02-19T10:20:07.335Z,51.36
2023-02-19T10:21:12.678Z,51.3
2023-02-19T10:22:17.077Z,51.32
2023-02-19T10:23:21.556Z,51.26
2023-02-19T10:24:25.805Z,51.33
2023-02-19T10:25:30.076Z,51.26
2023-02-19T10:26:34.308Z,51.24
2023-02-19T10:27:38.651Z,51.33
2023-02-19T10:28:42.901Z,51.21
2023-02-19T10:29:47.155Z,51.18
2023-02-19T10:30:51.567Z,51.15
2023-02-19T10:31:56.187Z,51.25
2023-02-19T10:33:00.518Z,51.2
2023-02-19T10:34:04.786Z,51.28
2023-02-19T10:35:09.052Z,51.2
2023-02-19T10:36:13.308Z,51.23
2023-02-19T10:37:17.562Z,51.05
2023-02-19T10:38:21.806Z,51.18
2023-02-19T10:39:26.072Z,51.23
2023-02-19T10:40:30.342Z,51.26
2023-02-19T10:41:34.614Z,51.35
2023-02-19T10:42:38.883Z,51.44
2023-02-19T10:43:43.132Z,51.53
2023-02-19T10:44:47.401Z,51.68
2023-02-19T10:45:51.642Z,51.42
2023-02-19T10:46:55.966Z,51.59
2023-02-19T10:48:00.236Z,51.23
2023-02-19T10:49:04.518Z,51.39
2023-02-19T10:50:08.856Z,51.46
2023-02-19T10:51:14.032Z,51.66
2023-02-19T10:52:18.350Z,51.58
2023-02-19T10:53:22.613Z,51.63
2023-02-19T10:54:26.915Z,51.65
2023-02-19T10:55:31.212Z,51.74
2023-02-19T10:56:35.449Z,51.58
2023-02-19T10:57:39.790Z,51.55
2023-02-19T10:58:44.072Z,51.76
2023-02-19T10:59:48.323Z,51.49
2023-02-19T11:00:52.582Z,51.68
2023-02-19T11:01:57.039Z,51.78
2023-02-19T11:03:01.429Z,51.63
2023-02-19T11:04:05.776Z,51.58
2023-02-19T11:05:10.020Z,51.58
2023-02-19T11:06:14.292Z,51.48
2023-02-19T11:07:18.518Z,51.5
2023-02-19T11:08:22.830Z,51.39
2023-02-19T11:09:27.136Z,51.46
2023-02-19T11:10:31.439Z,51.57
2023-02-19T11:11:35.713Z,51.56
2023-02-19T11:12:39.995Z,51.55
2023-02-19T11:13:44.275Z,51.61
2023-02-19T11:14:49.519Z,51.51
2023-02-19T11:15:53.979Z,51.65
2023-02-19T11:16:58.383Z,51.53
2023-02-19T11:18:02.648Z,51.57
2023-02-19T11:19:06.881Z,51.66
2023-02-19T11:20:11.145Z,51.81
2023-02-19T11:21:15.395Z,51.81
2023-02-19T11:22:19.703Z,51.72
2023-02-19T11:23:24.000Z,51.7
2023-02-19T11:24:28.390Z,51.77
2023-02-19T11:25:32.634Z,51.93
2023-02-19T11:26:36.874Z,51.89
2023-02-19T11:27:41.172Z,51.97
2023-02-19T11:28:45.470Z,52.19
2023-02-19T11:29:49.704Z,52.07
2023-02-19T11:30:53.956Z,52.07
2023-02-19T11:31:58.622Z,51.97
2023-02-19T11:33:02.895Z,51.93
2023-02-19T11:34:07.195Z,51.83
2023-02-19T11:35:11.474Z,51.87
2023-02-19T11:36:15.732Z,51.82
2023-02-19T11:37:20.050Z,51.75
2023-02-19T11:38:24.330Z,51.76
2023-02-19T11:39:28.632Z,51.73
2023-02-19T11:40:32.886Z,51.7
2023-02-19T11:41:37.298Z,51.63
2023-02-19T11:42:41.548Z,51.6
2023-02-19T11:43:45.808Z,51.49
2023-02-19T11:44:50.075Z,51.59
2023-02-19T11:45:54.338Z,51.53
2023-02-19T11:46:58.672Z,51.39
2023-02-19T11:48:02.953Z,51.49
2023-02-19T11:49:07.214Z,51.44
2023-02-19T11:50:11.558Z,51.43
2023-02-19T11:51:15.844Z,51.46
2023-02-19T11:52:20.136Z,51.55
2023-02-19T11:53:24.427Z,51.61
2023-02-19T11:54:28.712Z,51.6
2023-02-19T11:55:32.987Z,51.56
2023-02-19T11:56:37.262Z,51.65
2023-02-19T11:57:41.598Z,51.63
2023-02-19T11:58:45.880Z,51.49
2023-02-19T11:59:50.120Z,51.53
2023-02-19T12:00:54.399Z,51.53
2023-02-19T12:01:58.819Z,51.52
2023-02-19T12:03:03.140Z,51.59
2023-02-19T12:04:07.459Z,51.43
2023-02-19T12:05:11.963Z,51.37
2023-02-19T12:06:16.235Z,51.39
2023-02-19T12:07:23.304Z,51.43
2023-02-19T12:08:27.625Z,51.42
2023-02-19T12:09:31.919Z,51.34
2023-02-19T12:10:36.161Z,51.39
2023-02-19T12:11:40.443Z,51.38
2023-02-19T12:12:44.668Z,51.41
2023-02-19T12:13:48.986Z,51.33
2023-02-19T12:14:53.273Z,51.37
2023-02-19T12:15:57.622Z,51.31
2023-02-19T12:17:01.938Z,51.37
2023-02-19T12:18:06.204Z,51.31
2023-02-19T12:19:10.502Z,51.34
2023-02-19T12:20:15.127Z,51.28
2023-02-19T12:21:19.394Z,51.35
2023-02-19T12:22:23.672Z,51.36
2023-02-19T12:23:27.922Z,51.2
2023-02-19T12:24:32.167Z,51.24
2023-02-19T12:25:36.860Z,51.17
2023-02-19T12:26:41.128Z,51.15
2023-02-19T12:27:45.390Z,51.17
2023-02-19T12:28:49.661Z,51.18
2023-02-19T12:29:53.924Z,51.12
2023-02-19T12:30:58.369Z,51.09
2023-02-19T12:32:02.884Z,51.02
2023-02-19T12:33:07.198Z,51.11
2023-02-19T12:34:11.478Z,51.18
2023-02-19T12:35:15.758Z,51.18
2023-02-19T12:36:20.014Z,51.04
2023-02-19T12:37:24.316Z,51.1
2023-02-19T12:38:29.556Z,50.97
2023-02-19T12:39:33.879Z,50.88
2023-02-19T12:40:38.122Z,50.82
2023-02-19T12:41:42.408Z,50.86
2023-02-19T12:42:46.683Z,50.78
2023-02-19T12:43:50.952Z,50.75
2023-02-19T12:44:55.252Z,50.8
2023-02-19T12:45:59.644Z,50.73
2023-02-19T12:47:03.917Z,50.64
2023-02-19T12:48:08.174Z,50.66
2023-02-19T12:49:12.470Z,50.59
2023-02-19T12:50:16.744Z,50.64
2023-02-19T12:51:20.997Z,50.64
2023-02-19T12:52:25.258Z,50.59
2023-02-19T12:53:29.509Z,50.64
2023-02-19T12:54:33.789Z,50.52
2023-02-19T12:55:38.060Z,50.57
2023-02-19T12:56:42.300Z,50.5
2023-02-19T12:57:46.581Z,50.5
2023-02-19T12:58:50.845Z,50.37
2023-02-19T12:59:55.088Z,50.45
2023-02-19T13:00:59.428Z,50.39
2023-02-19T13:02:03.936Z,50.44
2023-02-19T13:03:08.277Z,50.4
2023-02-19T13:04:12.497Z,50.39
2023-02-19T13:05:16.744Z,50.33
2023-02-19T13:06:21.362Z,50.34
2023-02-19T13:07:25.622Z,50.27
2023-02-19T13:08:29.876Z,50.27
2023-02-19T13:09:34.115Z,50.1
2023-02-19T13:10:38.385Z,50.11
2023-02-19T13:11:42.702Z,50.16
2023-02-19T13:12:46.945Z,50.12
2023-02-19T13:13:51.182Z,50.12
2023-02-19T13:14:55.443Z,50.1
2023-02-19T13:16:00.169Z,50.09
2023-02-19T13:17:04.642Z,49.99
2023-02-19T13:18:08.901Z,49.9
2023-02-19T13:19:13.156Z,49.96
2023-02-19T13:20:17.404Z,50.01
2023-02-19T13:21:21.657Z,49.99
2023-02-19T13:22:25.997Z,50.09
2023-02-19T13:23:30.281Z,50.12
2023-02-19T13:24:34.584Z,50.06
2023-02-19T13:25:38.918Z,50.08
2023-02-19T13:26:43.204Z,50.19
2023-02-19T13:27:50.507Z,50.17
2023-02-19T13:28:54.822Z,50.1
2023-02-19T13:29:59.131Z,49.9
2023-02-19T13:31:03.875Z,49.96
2023-02-19T13:32:08.618Z,49.99
2023-02-19T13:33:12.941Z,50.13
2023-02-19T13:34:17.196Z,50.08
2023-02-19T13:35:21.453Z,50.04
2023-02-19T13:36:25.814Z,50.2
2023-02-19T13:37:30.072Z,50.18
2023-02-19T13:38:34.314Z,50.09
2023-02-19T13:39:38.660Z,50.02
2023-02-19T13:40:42.979Z,50.01
2023-02-19T13:41:47.299Z,49.92
2023-02-19T13:42:51.547Z,49.98
2023-02-19T13:43:55.857Z,49.89
2023-02-19T13:45:00.838Z,49.85
2023-02-19T13:46:05.302Z,49.82
2023-02-19T13:47:09.664Z,49.81
2023-02-19T13:48:13.925Z,49.85
2023-02-19T13:49:18.176Z,49.89
2023-02-19T13:50:22.545Z,49.95
2023-02-19T13:51:26.825Z,49.87
2023-02-19T13:52:31.408Z,49.78